Altonia, Brazil
Current Conditions -  °F | °C
As of 10:00 AM on Friday 31 Oct 2014 (Local Time) from SBCA Reporting Station
Few Clouds Few Clouds  
Wind Chill: 75°   Ceiling: Unl
Heat Index: 75°   Visibility: 6mi
Dew Point: 68°   Wind: 23mph
Humidity: 78%   Direction: 20°NNE
Pressure: 29.97"   Gusts: 35mph
Location:  23.86°S, 53.89°W
Report Text: SBCA 311200Z 02020G30KT 9999 FEW005 24/20 Q1015
Loading
Personal Weather Stations






























Interactive Weather Map
Tropical Storm Tracking
New forecast layout! Learn more

10-Day Weather Forecast

Advertisements
Track Severe Weather on mobile